Archival Weather

Chicago O'Hare International

Chicago, Illinois (KORD)

Report from: Thursday, June 23, 2022 7:51 AM CDT
Current time: Sunday, June 26, 2022 12:44 PM CDT

Current weather
Weather history
Weather forecast

Temperature22.8°C (73.0°F)
Dew point14.4°C (57.9°F)
Winds 7 kts (3.6 m/s, 8.1 mph) East-Northeast (70°)
Visibility10 mi. (16.1 km)
Clouds Scattered clouds 25,000 ft. (7,620 m)
Altimeter30.08 in.Hg (1019 mB)
Relative humidity59 %
Density altitude955 ft. (291 m)
Sea-level pressure101.8 kPa (1018 mB, 30.06 in.Hg)
Remarks Automated weather observing station with precipitation discriminator
Flight conditions Visual Meteorological Conditions
Raw dataKORD 231251Z 07007KT 10SM SCT250 23/14 A3008 RMK AO2 SLP180 T02280144
An error has occurred. This application may no longer respond until reloaded. Reload 🗙